sensor_id;sensor_type;location;lat;lon;timestamp;pressure;altitude;pressure_sealevel;temperature;humidity
9187;BME280;7273;48.902;9.410;2023-10-19T00:01:13;96431.78;;;11.39;71.14
9187;BME280;7273;48.902;9.410;2023-10-19T00:03:41;96431.78;;;11.39;71.29
9187;BME280;7273;48.902;9.410;2023-10-19T00:06:06;96440.38;;;11.41;71.46
9187;BME280;7273;48.902;9.410;2023-10-19T00:08:32;96434.16;;;11.40;71.36
9187;BME280;7273;48.902;9.410;2023-10-19T00:11:08;96436.22;;;11.43;71.32
9187;BME280;7273;48.902;9.410;2023-10-19T00:13:52;96423.16;;;11.45;71.27
9187;BME280;7273;48.902;9.410;2023-10-19T00:16:23;96429.06;;;11.47;71.21
9187;BME280;7273;48.902;9.410;2023-10-19T00:18:54;96430.31;;;11.50;71.50
9187;BME280;7273;48.902;9.410;2023-10-19T00:21:24;96433.00;;;11.50;71.28
9187;BME280;7273;48.902;9.410;2023-10-19T00:23:55;96423.44;;;11.52;71.19
9187;BME280;7273;48.902;9.410;2023-10-19T00:26:22;96421.53;;;11.53;71.32
9187;BME280;7273;48.902;9.410;2023-10-19T00:28:51;96427.44;;;11.55;71.39
9187;BME280;7273;48.902;9.410;2023-10-19T00:31:27;96427.09;;;11.56;71.36
9187;BME280;7273;48.902;9.410;2023-10-19T00:33:53;96415.47;;;11.56;71.79
9187;BME280;7273;48.902;9.410;2023-10-19T00:36:20;96417.06;;;11.57;71.70
9187;BME280;7273;48.902;9.410;2023-10-19T00:38:46;96416.75;;;11.58;71.86
9187;BME280;7273;48.902;9.410;2023-10-19T00:41:22;96409.88;;;11.61;71.77
9187;BME280;7273;48.902;9.410;2023-10-19T00:43:53;96413.06;;;11.63;71.94
9187;BME280;7273;48.902;9.410;2023-10-19T00:46:39;96406.22;;;11.65;72.07
9187;BME280;7273;48.902;9.410;2023-10-19T00:49:09;96404.31;;;11.66;72.32
9187;BME280;7273;48.902;9.410;2023-10-19T00:51:39;96414.06;;;11.67;72.11
9187;BME280;7273;48.902;9.410;2023-10-19T00:54:16;96406.38;;;11.69;72.87
9187;BME280;7273;48.902;9.410;2023-10-19T00:56:47;96403.34;;;11.70;72.82
9187;BME280;7273;48.902;9.410;2023-10-19T00:59:19;96403.16;;;11.75;72.86
9187;BME280;7273;48.902;9.410;2023-10-19T01:01:56;96407.97;;;11.78;72.93
9187;BME280;7273;48.902;9.410;2023-10-19T01:04:40;96400.75;;;11.82;72.63
9187;BME280;7273;48.902;9.410;2023-10-19T01:07:11;96382.75;;;11.86;72.46
9187;BME280;7273;48.902;9.410;2023-10-19T01:10:02;96377.16;;;11.91;72.61
9187;BME280;7273;48.902;9.410;2023-10-19T01:12:32;96379.66;;;11.96;72.80
9187;BME280;7273;48.902;9.410;2023-10-19T01:20:20;96359.81;;;12.13;72.77
9187;BME280;7273;48.902;9.410;2023-10-19T01:23:08;96345.63;;;12.16;72.61
9187;BME280;7273;48.902;9.410;2023-10-19T01:28:28;96343.69;;;12.16;72.76
9187;BME280;7273;48.902;9.410;2023-10-19T01:31:04;96339.88;;;12.18;72.91
9187;BME280;7273;48.902;9.410;2023-10-19T01:33:32;96339.41;;;12.15;73.00
9187;BME280;7273;48.902;9.410;2023-10-19T01:36:00;96337.50;;;12.16;73.31
9187;BME280;7273;48.902;9.410;2023-10-19T01:38:58;96333.13;;;12.24;73.91
9187;BME280;7273;48.902;9.410;2023-10-19T01:41:27;96328.56;;;12.36;73.01
9187;BME280;7273;48.902;9.410;2023-10-19T01:43:53;96326.94;;;12.44;73.27
9187;BME280;7273;48.902;9.410;2023-10-19T01:46:20;96335.78;;;12.53;72.99
9187;BME280;7273;48.902;9.410;2023-10-19T01:48:52;96319.31;;;12.58;73.00
9187;BME280;7273;48.902;9.410;2023-10-19T01:51:25;96316.41;;;12.63;72.75
9187;BME280;7273;48.902;9.410;2023-10-19T01:53:55;96309.66;;;12.69;72.88
9187;BME280;7273;48.902;9.410;2023-10-19T01:56:21;96313.75;;;12.75;72.42
9187;BME280;7273;48.902;9.410;2023-10-19T01:58:48;96313.22;;;12.81;72.82
9187;BME280;7273;48.902;9.410;2023-10-19T02:01:15;96316.50;;;12.87;72.62
9187;BME280;7273;48.902;9.410;2023-10-19T02:03:54;96309.44;;;12.94;72.57
9187;BME280;7273;48.902;9.410;2023-10-19T02:06:23;96316.56;;;12.99;72.27
9187;BME280;7273;48.902;9.410;2023-10-19T02:09:07;96313.34;;;13.05;72.76
9187;BME280;7273;48.902;9.410;2023-10-19T02:11:53;96299.22;;;13.12;72.51
9187;BME280;7273;48.902;9.410;2023-10-19T02:14:21;96299.34;;;13.15;72.54
9187;BME280;7273;48.902;9.410;2023-10-19T02:16:50;96295.16;;;13.18;72.61
9187;BME280;7273;48.902;9.410;2023-10-19T02:19:16;96294.81;;;13.19;72.68
9187;BME280;7273;48.902;9.410;2023-10-19T02:21:42;96294.81;;;13.19;72.76
9187;BME280;7273;48.902;9.410;2023-10-19T02:24:09;96291.75;;;13.21;73.05
9187;BME280;7273;48.902;9.410;2023-10-19T02:26:38;96284.75;;;13.20;72.99
9187;BME280;7273;48.902;9.410;2023-10-19T02:29:04;96281.69;;;13.21;72.98
9187;BME280;7273;48.902;9.410;2023-10-19T02:31:34;96279.00;;;13.21;73.27
9187;BME280;7273;48.902;9.410;2023-10-19T02:33:59;96280.91;;;13.21;73.30
9187;BME280;7273;48.902;9.410;2023-10-19T02:36:27;96274.69;;;13.20;73.61
9187;BME280;7273;48.902;9.410;2023-10-19T02:38:56;96277.75;;;13.19;73.45
9187;BME280;7273;48.902;9.410;2023-10-19T02:41:28;96269.81;;;13.14;73.28
9187;BME280;7273;48.902;9.410;2023-10-19T02:43:53;96263.94;;;13.12;73.75
9187;BME280;7273;48.902;9.410;2023-10-19T02:46:38;96275.25;;;13.14;78.62
9187;BME280;7273;48.902;9.410;2023-10-19T02:49:07;96271.47;;;13.06;74.77
9187;BME280;7273;48.902;9.410;2023-10-19T02:51:41;96270.09;;;13.00;74.43
9187;BME280;7273;48.902;9.410;2023-10-19T02:54:10;96272.00;;;13.00;74.15
9187;BME280;7273;48.902;9.410;2023-10-19T02:56:43;96264.41;;;12.93;74.13
9187;BME280;7273;48.902;9.410;2023-10-19T02:59:09;96267.47;;;12.92;73.88
9187;BME280;7273;48.902;9.410;2023-10-19T03:01:34;96269.72;;;12.90;73.94
9187;BME280;7273;48.902;9.410;2023-10-19T03:04:01;96262.25;;;12.87;74.03
9187;BME280;7273;48.902;9.410;2023-10-19T03:06:28;96261.47;;;12.86;74.17
9187;BME280;7273;48.902;9.410;2023-10-19T03:08:58;96264.53;;;12.85;74.23
9187;BME280;7273;48.902;9.410;2023-10-19T03:11:29;96266.78;;;12.83;74.34
9187;BME280;7273;48.902;9.410;2023-10-19T03:13:55;96258.63;;;12.83;74.25
9187;BME280;7273;48.902;9.410;2023-10-19T03:16:22;96260.88;;;12.81;74.55
9187;BME280;7273;48.902;9.410;2023-10-19T03:18:49;96260.09;;;12.80;74.42
9187;BME280;7273;48.902;9.410;2023-10-19T03:21:16;96256.13;;;12.78;74.38
9187;BME280;7273;48.902;9.410;2023-10-19T03:23:42;96252.63;;;12.77;74.54
9187;BME280;7273;48.902;9.410;2023-10-19T03:26:08;96253.41;;;12.78;74.53
9187;BME280;7273;48.902;9.410;2023-10-19T03:28:51;96244.81;;;12.76;74.66
9187;BME280;7273;48.902;9.410;2023-10-19T03:31:22;96241.78;;;12.77;74.61
9187;BME280;7273;48.902;9.410;2023-10-19T03:33:48;96235.88;;;12.75;74.78
9187;BME280;7273;48.902;9.410;2023-10-19T03:36:17;96238.16;;;12.73;74.68
9187;BME280;7273;48.902;9.410;2023-10-19T03:38:42;96238.03;;;12.70;75.12
9187;BME280;7273;48.902;9.410;2023-10-19T03:41:09;96241.84;;;12.69;74.94
9187;BME280;7273;48.902;9.410;2023-10-19T03:43:35;96233.91;;;12.64;74.75
9187;BME280;7273;48.902;9.410;2023-10-19T03:46:05;96239.13;;;12.57;75.08
9187;BME280;7273;48.902;9.410;2023-10-19T03:48:40;96232.41;;;12.54;74.74
9187;BME280;7273;48.902;9.410;2023-10-19T03:51:05;96226.09;;;12.50;74.85
9187;BME280;7273;48.902;9.410;2023-10-19T03:53:31;96227.88;;;12.46;74.89
9187;BME280;7273;48.902;9.410;2023-10-19T03:55:58;96225.38;;;12.41;74.97
9187;BME280;7273;48.902;9.410;2023-10-19T03:58:23;96226.50;;;12.40;75.18
9187;BME280;7273;48.902;9.410;2023-10-19T04:00:48;96228.63;;;12.35;75.28
9187;BME280;7273;48.902;9.410;2023-10-19T04:03:15;96223.06;;;12.31;75.02
9187;BME280;7273;48.902;9.410;2023-10-19T04:05:43;96222.94;;;12.28;75.28
9187;BME280;7273;48.902;9.410;2023-10-19T04:08:12;96215.94;;;12.27;75.36
9187;BME280;7273;48.902;9.410;2023-10-19T04:10:45;96216.13;;;12.22;75.48
9187;BME280;7273;48.902;9.410;2023-10-19T04:13:13;96207.09;;;12.18;75.36
9187;BME280;7273;48.902;9.410;2023-10-19T04:15:38;96202.44;;;12.18;75.47
9187;BME280;7273;48.902;9.410;2023-10-19T04:18:04;96197.84;;;12.18;75.57
9187;BME280;7273;48.902;9.410;2023-10-19T04:20:38;96188.78;;;12.14;75.32
9187;BME280;7273;48.902;9.410;2023-10-19T04:23:15;96188.56;;;12.19;75.76
9187;BME280;7273;48.902;9.410;2023-10-19T04:25:41;96187.66;;;12.15;75.72
9187;BME280;7273;48.902;9.410;2023-10-19T04:28:06;96184.97;;;12.15;75.65
9187;BME280;7273;48.902;9.410;2023-10-19T04:30:32;96179.53;;;12.15;75.72
9187;BME280;7273;48.902;9.410;2023-10-19T04:32:58;96174.66;;;12.09;75.82
9187;BME280;7273;48.902;9.410;2023-10-19T04:35:27;96169.38;;;12.12;75.62
9187;BME280;7273;48.902;9.410;2023-10-19T04:37:55;96168.22;;;12.13;75.60
9187;BME280;7273;48.902;9.410;2023-10-19T04:40:22;96169.22;;;12.09;75.67
9187;BME280;7273;48.902;9.410;2023-10-19T04:42:50;96167.75;;;12.11;75.60
9187;BME280;7273;48.902;9.410;2023-10-19T04:45:15;96170.81;;;12.10;75.49
9187;BME280;7273;48.902;9.410;2023-10-19T04:47:41;96166.06;;;12.07;75.65
9187;BME280;7273;48.902;9.410;2023-10-19T04:50:07;96163.81;;;12.09;75.91
9187;BME280;7273;48.902;9.410;2023-10-19T04:52:33;96167.19;;;12.06;75.66
9187;BME280;7273;48.902;9.410;2023-10-19T04:54:59;96163.34;;;12.07;75.79
9187;BME280;7273;48.902;9.410;2023-10-19T04:57:26;96162.13;;;12.04;75.88
9187;BME280;7273;48.902;9.410;2023-10-19T04:59:52;96163.56;;;12.02;75.88
9187;BME280;7273;48.902;9.410;2023-10-19T05:02:17;96160.50;;;12.03;75.94
9187;BME280;7273;48.902;9.410;2023-10-19T05:04:43;96159.59;;;11.99;75.82
9187;BME280;7273;48.902;9.410;2023-10-19T05:07:09;96160.72;;;11.98;75.90
9187;BME280;7273;48.902;9.410;2023-10-19T05:09:37;96154.28;;;12.03;79.07
9187;BME280;7273;48.902;9.410;2023-10-19T05:12:06;96146.50;;;12.01;76.75
9187;BME280;7273;48.902;9.410;2023-10-19T05:14:38;96157.34;;;12.01;76.01
9187;BME280;7273;48.902;9.410;2023-10-19T05:17:08;96152.25;;;12.00;76.04
9187;BME280;7273;48.902;9.410;2023-10-19T05:19:38;96144.31;;;12.15;75.86
9187;BME280;7273;48.902;9.410;2023-10-19T05:22:06;96148.97;;;12.27;75.96
9187;BME280;7273;48.902;9.410;2023-10-19T05:24:33;96153.78;;;12.42;75.90
9187;BME280;7273;48.902;9.410;2023-10-19T05:26:58;96155.28;;;12.52;75.75
9187;BME280;7273;48.902;9.410;2023-10-19T05:29:24;96156.75;;;12.61;75.90
9187;BME280;7273;48.902;9.410;2023-10-19T05:31:53;96152.81;;;12.71;75.78
9187;BME280;7273;48.902;9.410;2023-10-19T05:34:20;96162.78;;;12.79;75.54
9187;BME280;7273;48.902;9.410;2023-10-19T05:36:46;96168.44;;;12.86;75.87
9187;BME280;7273;48.902;9.410;2023-10-19T05:39:17;96160.53;;;12.93;75.68
9187;BME280;7273;48.902;9.410;2023-10-19T05:41:43;96158.38;;;12.98;75.51
9187;BME280;7273;48.902;9.410;2023-10-19T05:44:09;96165.53;;;13.03;75.41
9187;BME280;7273;48.902;9.410;2023-10-19T05:46:34;96164.19;;;13.09;75.28
9187;BME280;7273;48.902;9.410;2023-10-19T05:49:01;96166.22;;;13.12;75.12
9187;BME280;7273;48.902;9.410;2023-10-19T05:51:29;96170.63;;;13.16;75.15
9187;BME280;7273;48.902;9.410;2023-10-19T05:53:54;96169.19;;;13.19;75.52
9187;BME280;7273;48.902;9.410;2023-10-19T05:56:27;96170.53;;;13.25;75.12
9187;BME280;7273;48.902;9.410;2023-10-19T05:58:52;96173.59;;;13.23;75.36
9187;BME280;7273;48.902;9.410;2023-10-19T06:01:19;96179.34;;;13.22;75.40
9187;BME280;7273;48.902;9.410;2023-10-19T06:03:45;96175.41;;;13.31;75.48
9187;BME280;7273;48.902;9.410;2023-10-19T06:06:10;96178.34;;;13.26;75.30
9187;BME280;7273;48.902;9.410;2023-10-19T06:08:36;96179.47;;;13.25;75.39
9187;BME280;7273;48.902;9.410;2023-10-19T06:11:01;96170.28;;;13.18;75.67
9187;BME280;7273;48.902;9.410;2023-10-19T06:13:26;96188.94;;;13.19;75.43
9187;BME280;7273;48.902;9.410;2023-10-19T06:15:52;96179.13;;;13.15;75.52
9187;BME280;7273;48.902;9.410;2023-10-19T06:18:17;96179.69;;;13.08;75.70
9187;BME280;7273;48.902;9.410;2023-10-19T06:20:46;96174.94;;;13.05;75.57
9187;BME280;7273;48.902;9.410;2023-10-19T06:23:13;96171.59;;;13.00;75.72
9187;BME280;7273;48.902;9.410;2023-10-19T06:25:39;96178.84;;;12.96;75.93
9187;BME280;7273;48.902;9.410;2023-10-19T06:28:05;96174.81;;;13.02;75.75
9187;BME280;7273;48.902;9.410;2023-10-19T06:30:31;96173.03;;;13.06;75.98
9187;BME280;7273;48.902;9.410;2023-10-19T06:32:58;96179.00;;;13.11;76.26
9187;BME280;7273;48.902;9.410;2023-10-19T06:35:29;96183.75;;;13.14;76.42
9187;BME280;7273;48.902;9.410;2023-10-19T06:37:57;96182.97;;;13.14;76.67
9187;BME280;7273;48.902;9.410;2023-10-19T06:40:24;96190.78;;;13.15;76.40
9187;BME280;7273;48.902;9.410;2023-10-19T06:42:52;96185.69;;;13.14;76.12
9187;BME280;7273;48.902;9.410;2023-10-19T06:45:20;96186.47;;;13.14;76.56
9187;BME280;7273;48.902;9.410;2023-10-19T06:47:47;96186.25;;;13.07;76.44
9187;BME280;7273;48.902;9.410;2023-10-19T06:50:15;96177.09;;;13.12;76.55
9187;BME280;7273;48.902;9.410;2023-10-19T06:52:42;96168.94;;;13.12;76.49
9187;BME280;7273;48.902;9.410;2023-10-19T06:55:11;96177.88;;;13.12;76.35
9187;BME280;7273;48.902;9.410;2023-10-19T06:57:42;96173.69;;;13.15;76.35
9187;BME280;7273;48.902;9.410;2023-10-19T07:00:12;96186.13;;;13.16;76.53
9187;BME280;7273;48.902;9.410;2023-10-19T07:02:51;96180.03;;;13.19;76.39
9187;BME280;7273;48.902;9.410;2023-10-19T07:05:18;96170.41;;;13.21;76.56
9187;BME280;7273;48.902;9.410;2023-10-19T07:07:46;96177.09;;;13.24;76.43
9187;BME280;7273;48.902;9.410;2023-10-19T07:10:12;96174.81;;;13.26;76.39
9187;BME280;7273;48.902;9.410;2023-10-19T07:12:39;96173.38;;;13.28;76.57
9187;BME280;7273;48.902;9.410;2023-10-19T07:15:06;96174.25;;;13.32;76.34
9187;BME280;7273;48.902;9.410;2023-10-19T07:17:39;96174.72;;;13.34;76.69
9187;BME280;7273;48.902;9.410;2023-10-19T07:20:05;96171.31;;;13.37;76.56
9187;BME280;7273;48.902;9.410;2023-10-19T07:22:32;96174.47;;;13.39;76.80
9187;BME280;7273;48.902;9.410;2023-10-19T07:24:58;96164.88;;;13.42;76.92
9187;BME280;7273;48.902;9.410;2023-10-19T07:27:23;96164.19;;;13.45;76.99
9187;BME280;7273;48.902;9.410;2023-10-19T07:29:52;96166.56;;;13.46;76.72
9187;BME280;7273;48.902;9.410;2023-10-19T07:32:18;96161.25;;;13.50;76.99
9187;BME280;7273;48.902;9.410;2023-10-19T07:34:43;96167.09;;;13.52;76.94
9187;BME280;7273;48.902;9.410;2023-10-19T07:37:12;96171.09;;;13.55;77.01
9187;BME280;7273;48.902;9.410;2023-10-19T07:39:49;96166.53;;;13.59;77.16
9187;BME280;7273;48.902;9.410;2023-10-19T07:42:17;96169.72;;;13.61;76.86
9187;BME280;7273;48.902;9.410;2023-10-19T07:44:43;96160.88;;;13.64;76.64
9187;BME280;7273;48.902;9.410;2023-10-19T07:47:11;96162.13;;;13.66;76.75
9187;BME280;7273;48.902;9.410;2023-10-19T07:49:37;96165.19;;;13.65;76.79
9187;BME280;7273;48.902;9.410;2023-10-19T07:52:07;96168.00;;;13.68;76.87
9187;BME280;7273;48.902;9.410;2023-10-19T07:54:36;96154.09;;;13.70;76.46
9187;BME280;7273;48.902;9.410;2023-10-19T07:57:02;96156.47;;;13.71;76.79
9187;BME280;7273;48.902;9.410;2023-10-19T07:59:32;96156.22;;;13.76;76.84
9187;BME280;7273;48.902;9.410;2023-10-19T08:01:58;96155.19;;;13.81;76.75
9187;BME280;7273;48.902;9.410;2023-10-19T08:04:23;96144.09;;;13.86;76.84
9187;BME280;7273;48.902;9.410;2023-10-19T08:06:50;96142.69;;;13.92;76.79
9187;BME280;7273;48.902;9.410;2023-10-19T08:09:16;96151.06;;;13.99;77.05
9187;BME280;7273;48.902;9.410;2023-10-19T08:11:48;96141.16;;;14.06;77.14
9187;BME280;7273;48.902;9.410;2023-10-19T08:14:14;96141.38;;;14.13;76.91
9187;BME280;7273;48.902;9.410;2023-10-19T08:16:39;96142.81;;;14.23;76.96
9187;BME280;7273;48.902;9.410;2023-10-19T08:19:07;96151.19;;;14.30;77.27
9187;BME280;7273;48.902;9.410;2023-10-19T08:21:32;96154.13;;;14.37;77.04
9187;BME280;7273;48.902;9.410;2023-10-19T08:23:59;96149.66;;;14.44;77.19
9187;BME280;7273;48.902;9.410;2023-10-19T08:26:30;96146.34;;;14.51;77.08
9187;BME280;7273;48.902;9.410;2023-10-19T08:28:55;96145.28;;;14.55;77.36
9187;BME280;7273;48.902;9.410;2023-10-19T08:31:21;96145.47;;;14.62;77.34
9187;BME280;7273;48.902;9.410;2023-10-19T08:33:46;96137.41;;;14.66;77.50
9187;BME280;7273;48.902;9.410;2023-10-19T08:36:17;96144.97;;;14.72;77.31
9187;BME280;7273;48.902;9.410;2023-10-19T08:38:44;96151.63;;;14.75;77.30
9187;BME280;7273;48.902;9.410;2023-10-19T08:41:10;96149.00;;;14.78;77.47
9187;BME280;7273;48.902;9.410;2023-10-19T08:43:35;96139.78;;;14.83;77.55
9187;BME280;7273;48.902;9.410;2023-10-19T08:46:05;96128.63;;;14.88;77.60
9187;BME280;7273;48.902;9.410;2023-10-19T08:48:33;96130.03;;;14.98;77.32
9187;BME280;7273;48.902;9.410;2023-10-19T08:51:02;96128.28;;;15.05;77.44
9187;BME280;7273;48.902;9.410;2023-10-19T08:53:27;96132.75;;;15.13;77.38
9187;BME280;7273;48.902;9.410;2023-10-19T08:55:54;96132.16;;;15.20;77.68
9187;BME280;7273;48.902;9.410;2023-10-19T08:58:20;96136.25;;;15.29;77.48
9187;BME280;7273;48.902;9.410;2023-10-19T09:00:51;96136.19;;;15.41;77.60
9187;BME280;7273;48.902;9.410;2023-10-19T09:03:19;96134.69;;;15.44;77.82
9187;BME280;7273;48.902;9.410;2023-10-19T09:05:47;96138.66;;;15.46;78.12
9187;BME280;7273;48.902;9.410;2023-10-19T09:08:17;96138.94;;;15.60;77.94
9187;BME280;7273;48.902;9.410;2023-10-19T09:10:44;96132.88;;;15.67;77.74
9187;BME280;7273;48.902;9.410;2023-10-19T09:13:10;96134.97;;;15.73;77.84
9187;BME280;7273;48.902;9.410;2023-10-19T09:15:38;96126.59;;;15.82;77.63
9187;BME280;7273;48.902;9.410;2023-10-19T09:18:24;96121.00;;;15.94;78.23
9187;BME280;7273;48.902;9.410;2023-10-19T09:20:52;96116.41;;;15.98;77.81
9187;BME280;7273;48.902;9.410;2023-10-19T09:25:46;96114.03;;;16.15;77.54
9187;BME280;7273;48.902;9.410;2023-10-19T09:28:12;96118.50;;;16.24;77.45
9187;BME280;7273;48.902;9.410;2023-10-19T09:30:40;96116.19;;;16.45;76.89
9187;BME280;7273;48.902;9.410;2023-10-19T09:33:08;96108.19;;;16.55;76.40
9187;BME280;7273;48.902;9.410;2023-10-19T09:35:34;96102.44;;;16.60;76.72
9187;BME280;7273;48.902;9.410;2023-10-19T09:38:04;96110.47;;;16.72;76.65
9187;BME280;7273;48.902;9.410;2023-10-19T09:40:31;96117.75;;;16.87;79.24
9187;BME280;7273;48.902;9.410;2023-10-19T09:42:58;96120.53;;;16.91;76.63
9187;BME280;7273;48.902;9.410;2023-10-19T09:45:27;96113.25;;;16.98;76.07
9187;BME280;7273;48.902;9.410;2023-10-19T09:47:55;96097.72;;;17.02;76.37
9187;BME280;7273;48.902;9.410;2023-10-19T09:50:21;96103.22;;;17.06;76.38
9187;BME280;7273;48.902;9.410;2023-10-19T09:52:48;96103.72;;;17.11;76.09
9187;BME280;7273;48.902;9.410;2023-10-19T09:58:52;96095.69;;;17.22;77.14
9187;BME280;7273;48.902;9.410;2023-10-19T10:00:51;96087.22;;;17.30;76.62
9187;BME280;7273;48.902;9.410;2023-10-19T10:06:13;96091.84;;;17.49;77.12
9187;BME280;7273;48.902;9.410;2023-10-19T10:08:46;96082.75;;;17.68;76.98
9187;BME280;7273;48.902;9.410;2023-10-19T10:11:16;96081.69;;;17.79;76.80
9187;BME280;7273;48.902;9.410;2023-10-19T10:13:42;96089.19;;;17.86;76.66
9187;BME280;7273;48.902;9.410;2023-10-19T10:16:08;96079.53;;;17.92;75.96
9187;BME280;7273;48.902;9.410;2023-10-19T10:18:34;96082.31;;;17.95;75.83
9187;BME280;7273;48.902;9.410;2023-10-19T10:21:07;96084.25;;;17.95;76.09
9187;BME280;7273;48.902;9.410;2023-10-19T10:23:47;96076.38;;;17.90;76.51
9187;BME280;7273;48.902;9.410;2023-10-19T10:26:14;96074.06;;;17.92;76.22
9187;BME280;7273;48.902;9.410;2023-10-19T10:28:40;96066.63;;;17.92;75.94
9187;BME280;7273;48.902;9.410;2023-10-19T10:31:19;96069.78;;;17.94;75.82
9187;BME280;7273;48.902;9.410;2023-10-19T10:33:52;96068.97;;;17.90;75.86
9187;BME280;7273;48.902;9.410;2023-10-19T10:36:20;96066.97;;;17.87;75.71
9187;BME280;7273;48.902;9.410;2023-10-19T10:38:50;96063.78;;;17.82;75.96
9187;BME280;7273;48.902;9.410;2023-10-19T10:41:23;96060.25;;;17.81;75.87
9187;BME280;7273;48.902;9.410;2023-10-19T10:43:58;96063.25;;;17.73;76.16
9187;BME280;7273;48.902;9.410;2023-10-19T10:46:26;96059.75;;;17.72;76.03
9187;BME280;7273;48.902;9.410;2023-10-19T10:48:52;96064.03;;;17.73;75.90
9187;BME280;7273;48.902;9.410;2023-10-19T10:51:22;96059.00;;;17.75;75.76
9187;BME280;7273;48.902;9.410;2023-10-19T10:53:52;96064.91;;;17.77;75.65
9187;BME280;7273;48.902;9.410;2023-10-19T10:56:19;96063.34;;;17.80;75.49
9187;BME280;7273;48.902;9.410;2023-10-19T10:58:45;96063.72;;;17.78;75.53
9187;BME280;7273;48.902;9.410;2023-10-19T11:01:11;96064.47;;;17.75;75.50
9187;BME280;7273;48.902;9.410;2023-10-19T11:03:38;96066.47;;;17.78;75.14
9187;BME280;7273;48.902;9.410;2023-10-19T11:06:07;96066.81;;;17.77;75.15
9187;BME280;7273;48.902;9.410;2023-10-19T11:08:34;96059.00;;;17.75;75.22
9187;BME280;7273;48.902;9.410;2023-10-19T11:11:08;96057.75;;;17.69;75.55
9187;BME280;7273;48.902;9.410;2023-10-19T11:13:38;96066.34;;;17.68;75.39
9187;BME280;7273;48.902;9.410;2023-10-19T11:16:05;96060.50;;;17.69;75.11
9187;BME280;7273;48.902;9.410;2023-10-19T11:18:35;96062.06;;;17.70;74.73
9187;BME280;7273;48.902;9.410;2023-10-19T11:21:12;96071.75;;;17.64;75.39
9187;BME280;7273;48.902;9.410;2023-10-19T11:23:49;96065.06;;;17.62;75.27
9187;BME280;7273;48.902;9.410;2023-10-19T11:26:20;96068.97;;;17.61;75.18
9187;BME280;7273;48.902;9.410;2023-10-19T11:28:46;96073.25;;;17.62;74.77
9187;BME280;7273;48.902;9.410;2023-10-19T11:31:21;96076.78;;;17.62;74.67
9187;BME280;7273;48.902;9.410;2023-10-19T11:33:51;96069.34;;;17.59;74.61
9187;BME280;7273;48.902;9.410;2023-10-19T11:36:19;96069.72;;;17.58;74.77
9187;BME280;7273;48.902;9.410;2023-10-19T11:38:46;96063.03;;;17.55;74.57
9187;BME280;7273;48.902;9.410;2023-10-19T11:41:13;96067.28;;;17.53;74.79
9187;BME280;7273;48.902;9.410;2023-10-19T11:43:43;96064.78;;;17.44;75.09
9187;BME280;7273;48.902;9.410;2023-10-19T11:46:09;96075.66;;;17.40;75.23
9187;BME280;7273;48.902;9.410;2023-10-19T11:48:37;96073.25;;;17.35;75.42
9187;BME280;7273;48.902;9.410;2023-10-19T11:51:03;96072.47;;;17.35;75.27
9187;BME280;7273;48.902;9.410;2023-10-19T11:53:33;96075.56;;;17.33;74.97
9187;BME280;7273;48.902;9.410;2023-10-19T11:56:03;96077.03;;;17.27;75.07
9187;BME280;7273;48.902;9.410;2023-10-19T11:58:32;96072.31;;;17.24;74.90
9187;BME280;7273;48.902;9.410;2023-10-19T12:00:59;96076.94;;;17.20;74.86
9187;BME280;7273;48.902;9.410;2023-10-19T12:03:24;96063.53;;;17.12;75.10
9187;BME280;7273;48.902;9.410;2023-10-19T12:05:51;96061.06;;;17.03;74.88
9187;BME280;7273;48.902;9.410;2023-10-19T12:08:18;96055.47;;;16.96;74.85
9187;BME280;7273;48.902;9.410;2023-10-19T12:10:44;96051.06;;;16.88;75.10
9187;BME280;7273;48.902;9.410;2023-10-19T12:13:09;96050.50;;;16.79;75.40
9187;BME280;7273;48.902;9.410;2023-10-19T12:15:35;96055.44;;;16.70;75.39
9187;BME280;7273;48.902;9.410;2023-10-19T12:18:00;96042.47;;;16.64;75.46
9187;BME280;7273;48.902;9.410;2023-10-19T12:20:28;96038.13;;;16.59;75.51
9187;BME280;7273;48.902;9.410;2023-10-19T12:22:56;96044.22;;;16.53;75.83
9187;BME280;7273;48.902;9.410;2023-10-19T12:25:22;96032.72;;;16.44;75.92
9187;BME280;7273;48.902;9.410;2023-10-19T12:27:57;96030.81;;;16.44;75.91
9187;BME280;7273;48.902;9.410;2023-10-19T12:30:23;96017.53;;;16.43;75.84
9187;BME280;7273;48.902;9.410;2023-10-19T12:32:52;96003.75;;;16.36;76.15
9187;BME280;7273;48.902;9.410;2023-10-19T12:35:17;96011.13;;;16.35;76.32
9187;BME280;7273;48.902;9.410;2023-10-19T12:37:48;96002.94;;;16.35;76.32
9187;BME280;7273;48.902;9.410;2023-10-19T12:40:17;95995.88;;;16.31;76.57
9187;BME280;7273;48.902;9.410;2023-10-19T12:42:52;95997.50;;;16.35;80.37
9187;BME280;7273;48.902;9.410;2023-10-19T12:45:23;96012.97;;;16.28;77.38
9187;BME280;7273;48.902;9.410;2023-10-19T12:47:49;95995.81;;;16.27;76.82
9187;BME280;7273;48.902;9.410;2023-10-19T12:50:19;95994.59;;;16.25;76.89
9187;BME280;7273;48.902;9.410;2023-10-19T12:52:51;96000.50;;;16.27;76.68
9187;BME280;7273;48.902;9.410;2023-10-19T12:55:18;95989.16;;;16.25;76.80
9187;BME280;7273;48.902;9.410;2023-10-19T12:57:43;95989.06;;;16.21;77.02
9187;BME280;7273;48.902;9.410;2023-10-19T13:00:10;95975.81;;;16.20;77.15
9187;BME280;7273;48.902;9.410;2023-10-19T13:02:57;95959.38;;;16.16;76.97
9187;BME280;7273;48.902;9.410;2023-10-19T13:05:32;95982.00;;;16.17;77.19
9187;BME280;7273;48.902;9.410;2023-10-19T13:07:57;95993.25;;;16.15;77.11
9187;BME280;7273;48.902;9.410;2023-10-19T13:10:27;95997.91;;;16.14;77.13
9187;BME280;7273;48.902;9.410;2023-10-19T13:12:53;95987.69;;;16.08;77.16
9187;BME280;7273;48.902;9.410;2023-10-19T13:15:19;95986.09;;;16.07;77.23
9187;BME280;7273;48.902;9.410;2023-10-19T13:17:47;95979.44;;;16.04;77.30
9187;BME280;7273;48.902;9.410;2023-10-19T13:20:13;95983.69;;;16.02;77.31
9187;BME280;7273;48.902;9.410;2023-10-19T13:22:43;95990.69;;;16.03;77.36
9187;BME280;7273;48.902;9.410;2023-10-19T13:25:09;95986.03;;;16.03;77.37
9187;BME280;7273;48.902;9.410;2023-10-19T13:27:38;95985.53;;;15.98;81.45
9187;BME280;7273;48.902;9.410;2023-10-19T13:30:03;95976.53;;;15.94;78.77
9187;BME280;7273;48.902;9.410;2023-10-19T13:32:29;95969.19;;;15.98;77.92
9187;BME280;7273;48.902;9.410;2023-10-19T13:34:55;95960.53;;;15.92;77.71
9187;BME280;7273;48.902;9.410;2023-10-19T13:37:20;95957.81;;;15.92;77.59
9187;BME280;7273;48.902;9.410;2023-10-19T13:39:46;95952.38;;;15.96;77.63
9187;BME280;7273;48.902;9.410;2023-10-19T13:42:11;95951.25;;;15.97;77.63
9187;BME280;7273;48.902;9.410;2023-10-19T13:44:37;95958.28;;;15.98;77.51
9187;BME280;7273;48.902;9.410;2023-10-19T13:47:02;95957.91;;;15.99;77.84